createdAt,value
2018-03-28T00:02:02.142Z,34.70
2018-03-28T00:04:29.618Z,35.37
2018-03-28T00:06:57.087Z,35.10
2018-03-28T00:09:24.560Z,34.70
2018-03-28T00:11:52.024Z,33.60
2018-03-28T00:14:19.487Z,33.43
2018-03-28T00:16:47.724Z,38.90
2018-03-28T00:19:15.188Z,35.10
2018-03-28T00:21:42.665Z,33.23
2018-03-28T00:24:10.132Z,29.57
2018-03-28T00:26:37.578Z,28.23
2018-03-28T00:29:05.051Z,30.03
2018-03-28T00:31:32.522Z,31.17
2018-03-28T00:36:34.767Z,25.70
2018-03-28T00:39:02.253Z,28.80
2018-03-28T00:41:29.714Z,27.10
2018-03-28T00:43:57.236Z,24.63
2018-03-28T00:46:24.690Z,25.67
2018-03-28T00:48:52.172Z,25.70
2018-03-28T00:51:31.532Z,27.30
2018-03-28T00:53:59.767Z,26.87
2018-03-28T00:56:27.231Z,26.17
2018-03-28T00:58:54.699Z,24.43
2018-03-28T01:01:22.159Z,23.83
2018-03-28T01:03:50.410Z,23.83
2018-03-28T01:06:19.697Z,27.07
2018-03-28T01:08:47.168Z,21.67
2018-03-28T01:11:14.630Z,20.97
2018-03-28T01:13:42.094Z,19.50
2018-03-28T01:16:09.562Z,25.10
2018-03-28T01:18:37.039Z,20.23
2018-03-28T01:21:04.500Z,22.43
2018-03-28T01:23:33.484Z,19.77
2018-03-28T01:26:00.947Z,18.40
2018-03-28T01:28:28.411Z,18.17
2018-03-28T01:30:55.869Z,20.53
2018-03-28T01:33:23.330Z,21.77
2018-03-28T01:35:50.915Z,20.07
2018-03-28T01:38:19.153Z,19.33
2018-03-28T01:40:46.611Z,15.33
2018-03-28T01:43:14.303Z,19.97
2018-03-28T01:45:42.529Z,20.70
2018-03-28T01:48:09.991Z,19.63
2018-03-28T01:50:37.467Z,18.83
2018-03-28T01:53:06.435Z,20.70
2018-03-28T01:55:34.009Z,15.73
2018-03-28T01:58:01.463Z,21.33
2018-03-28T02:00:28.987Z,20.63
2018-03-28T02:02:56.444Z,20.13
2018-03-28T02:05:23.934Z,17.13
2018-03-28T02:07:51.499Z,17.53
2018-03-28T02:10:18.977Z,19.57
2018-03-28T02:12:46.440Z,17.73
2018-03-28T02:15:13.918Z,18.53
2018-03-28T02:17:42.155Z,14.50
2018-03-28T02:20:09.622Z,18.67
2018-03-28T02:22:37.846Z,15.17
2018-03-28T02:25:05.315Z,20.90
2018-03-28T02:27:32.770Z,19.87
2018-03-28T02:30:00.249Z,19.33
2018-03-28T02:32:27.703Z,18.90
2018-03-28T02:34:55.172Z,17.90
2018-03-28T02:37:22.628Z,17.20
2018-03-28T02:39:50.108Z,16.60
2018-03-28T02:42:17.567Z,17.33
2018-03-28T02:44:45.031Z,16.17
2018-03-28T02:47:12.495Z,12.73
2018-03-28T02:49:39.964Z,15.60
2018-03-28T02:52:08.196Z,16.27
2018-03-28T02:54:35.668Z,14.77
2018-03-28T02:57:03.135Z,14.30
2018-03-28T02:59:30.600Z,13.20
2018-03-28T03:01:58.065Z,11.67
2018-03-28T03:04:25.532Z,12.13
2018-03-28T03:06:53.768Z,11.40
2018-03-28T03:09:21.239Z,13.63
2018-03-28T03:11:48.703Z,12.63
2018-03-28T03:14:16.168Z,14.00
2018-03-28T03:16:43.626Z,12.77
2018-03-28T03:19:11.099Z,16.40
2018-03-28T03:21:39.327Z,16.63
2018-03-28T03:24:06.803Z,16.23
2018-03-28T03:26:34.263Z,15.63
2018-03-28T03:29:01.739Z,15.33
2018-03-28T03:31:29.199Z,14.80
2018-03-28T03:33:56.671Z,17.93
2018-03-28T03:36:24.895Z,15.67
2018-03-28T03:38:52.358Z,16.17
2018-03-28T03:41:19.873Z,11.53
2018-03-28T03:43:48.159Z,15.13
2018-03-28T03:46:15.615Z,16.93
2018-03-28T03:48:43.087Z,16.87
2018-03-28T03:51:10.605Z,15.30
2018-03-28T03:53:38.028Z,18.43
2018-03-28T03:56:05.487Z,16.20
2018-03-28T03:58:32.955Z,12.30
2018-03-28T04:01:00.431Z,14.17
2018-03-28T04:03:27.891Z,13.70
2018-03-28T04:05:55.364Z,12.80
2018-03-28T04:08:23.591Z,15.77
2018-03-28T04:10:51.067Z,13.83
2018-03-28T04:13:18.531Z,14.67
2018-03-28T04:15:45.998Z,15.57
2018-03-28T04:18:13.474Z,13.33
2018-03-28T04:20:41.706Z,13.97
2018-03-28T04:23:09.168Z,11.80
2018-03-28T04:25:36.640Z,12.50
2018-03-28T04:28:04.089Z,12.27
2018-03-28T04:30:31.586Z,9.83
2018-03-28T04:32:59.807Z,9.17
2018-03-28T04:35:27.275Z,7.63
2018-03-28T04:37:54.727Z,7.70
2018-03-28T04:40:22.235Z,9.20
2018-03-28T04:42:50.458Z,6.97
2018-03-28T04:45:17.948Z,6.33
2018-03-28T04:47:45.399Z,5.77
2018-03-28T04:50:12.863Z,6.60
2018-03-28T04:52:40.323Z,7.27
2018-03-28T04:55:07.795Z,5.30
2018-03-28T04:57:36.015Z,6.33
2018-03-28T05:00:03.484Z,6.17
2018-03-28T05:02:30.930Z,5.87
2018-03-28T05:04:58.394Z,6.27
2018-03-28T05:07:25.903Z,7.90
2018-03-28T05:09:54.122Z,7.27
2018-03-28T05:12:21.579Z,8.73
2018-03-28T05:14:49.048Z,8.80
2018-03-28T05:17:16.545Z,8.57
2018-03-28T05:19:43.951Z,9.07
2018-03-28T05:22:11.423Z,11.37
2018-03-28T05:24:38.870Z,8.63
2018-03-28T05:27:06.328Z,8.87
2018-03-28T05:29:33.798Z,10.13
2018-03-28T05:32:01.255Z,9.80
2018-03-28T05:34:28.725Z,11.57
2018-03-28T05:36:56.179Z,13.53
2018-03-28T05:39:23.648Z,10.37
2018-03-28T05:41:51.112Z,10.63
2018-03-28T05:44:18.591Z,10.97
2018-03-28T05:46:46.034Z,9.40
2018-03-28T05:49:13.482Z,8.60
2018-03-28T05:51:40.944Z,8.10
2018-03-28T05:54:08.395Z,8.13
2018-03-28T05:56:35.854Z,7.23
2018-03-28T05:59:03.312Z,8.37
2018-03-28T06:01:30.776Z,11.43
2018-03-28T06:03:58.994Z,12.07
2018-03-28T06:06:26.887Z,13.33
2018-03-28T06:08:54.343Z,15.27
2018-03-28T06:11:21.801Z,13.87
2018-03-28T06:13:49.263Z,13.27
2018-03-28T06:16:16.739Z,17.73
2018-03-28T06:18:44.201Z,16.80
2018-03-28T06:21:11.668Z,20.17
2018-03-28T06:23:39.127Z,18.93
2018-03-28T06:26:06.590Z,21.57
2018-03-28T06:28:34.068Z,21.80
2018-03-28T06:31:02.308Z,31.80
2018-03-28T06:33:29.754Z,20.13
2018-03-28T06:35:57.232Z,18.90
2018-03-28T06:38:24.693Z,22.23
2018-03-28T06:40:52.175Z,19.40
2018-03-28T06:43:19.627Z,19.83
2018-03-28T06:45:47.095Z,15.80
2018-03-28T06:48:15.323Z,15.63
2018-03-28T06:50:42.797Z,13.30
2018-03-28T06:53:10.248Z,12.13
2018-03-28T06:55:37.713Z,11.20
2018-03-28T06:58:05.167Z,10.07
2018-03-28T07:00:32.654Z,9.50
2018-03-28T07:03:00.896Z,9.03
2018-03-28T07:05:28.351Z,8.80
2018-03-28T07:07:55.813Z,9.23
2018-03-28T07:10:23.268Z,10.07
2018-03-28T07:12:50.762Z,12.87
2018-03-28T07:15:18.995Z,13.13
2018-03-28T07:17:46.446Z,12.03
2018-03-28T07:20:13.913Z,13.10
2018-03-28T07:22:41.463Z,12.97
2018-03-28T07:25:08.993Z,12.00
2018-03-28T07:27:37.226Z,15.03
2018-03-28T07:30:04.692Z,16.27
2018-03-28T07:32:32.148Z,15.03
2018-03-28T07:34:59.656Z,16.77
2018-03-28T07:37:27.115Z,17.53
2018-03-28T07:39:55.587Z,17.03
2018-03-28T07:42:23.047Z,18.17
2018-03-28T07:44:50.602Z,16.43
2018-03-28T07:47:18.843Z,19.63
2018-03-28T07:49:47.076Z,19.83
2018-03-28T07:52:14.711Z,14.43
2018-03-28T07:54:43.003Z,22.07
2018-03-28T07:57:10.466Z,17.10
2018-03-28T07:59:37.943Z,15.13
2018-03-28T08:02:05.412Z,15.03
2018-03-28T08:04:32.858Z,18.23
2018-03-28T08:07:00.389Z,14.43
2018-03-28T08:09:27.928Z,16.97
2018-03-28T08:11:55.414Z,15.23
2018-03-28T08:14:23.674Z,14.47
2018-03-28T08:16:51.906Z,16.40
2018-03-28T08:19:19.368Z,13.27
2018-03-28T08:21:46.927Z,14.23
2018-03-28T08:24:14.391Z,14.47
2018-03-28T08:26:41.861Z,13.87
2018-03-28T08:29:09.324Z,13.27
2018-03-28T08:31:36.807Z,12.40
2018-03-28T08:34:05.082Z,12.77
2018-03-28T08:36:33.377Z,13.67
2018-03-28T08:39:00.860Z,12.93
2018-03-28T08:41:28.310Z,12.90
2018-03-28T08:43:55.774Z,13.93
2018-03-28T08:46:23.239Z,12.20
2018-03-28T08:48:50.696Z,10.23
2018-03-28T08:51:18.206Z,12.40
2018-03-28T08:53:46.421Z,12.17
2018-03-28T08:56:13.891Z,15.07
2018-03-28T08:58:41.395Z,13.50
2018-03-28T09:01:09.627Z,12.83
2018-03-28T09:03:37.134Z,15.27
2018-03-28T09:06:05.371Z,12.77
2018-03-28T09:08:32.832Z,11.90
2018-03-28T09:11:00.311Z,12.40
2018-03-28T09:13:27.792Z,11.70
2018-03-28T09:15:56.075Z,14.37
2018-03-28T09:18:24.299Z,21.47
2018-03-28T09:20:51.782Z,19.10
2018-03-28T09:23:19.240Z,18.03
2018-03-28T09:25:46.724Z,16.40
2018-03-28T09:28:14.994Z,14.03
2018-03-28T09:30:43.239Z,10.70
2018-03-28T09:33:11.461Z,6.73
2018-03-28T09:35:39.011Z,7.93
2018-03-28T09:38:07.296Z,8.83
2018-03-28T09:40:35.562Z,7.50
2018-03-28T09:43:03.787Z,9.10
2018-03-28T09:45:31.303Z,9.80
2018-03-28T09:47:59.583Z,9.43
2018-03-28T09:50:28.070Z,8.77
2018-03-28T09:52:55.518Z,8.37
2018-03-28T09:55:23.755Z,7.97
2018-03-28T09:57:51.220Z,7.80
2018-03-28T10:00:25.791Z,7.47
2018-03-28T10:02:58.948Z,7.43
2018-03-28T10:05:32.875Z,6.37
2018-03-28T10:08:01.139Z,9.47
2018-03-28T10:10:28.605Z,7.93
2018-03-28T10:12:56.899Z,8.67
2018-03-28T10:15:24.366Z,9.03
2018-03-28T10:17:51.843Z,9.87
2018-03-28T10:20:19.306Z,9.90
2018-03-28T10:22:46.839Z,9.93
2018-03-28T10:25:14.376Z,9.60
2018-03-28T10:27:42.662Z,7.63
2018-03-28T10:30:10.935Z,8.07
2018-03-28T10:32:39.219Z,8.17
2018-03-28T10:35:06.761Z,7.17
2018-03-28T10:37:34.236Z,6.63
2018-03-28T10:40:02.461Z,6.47
2018-03-28T10:42:29.927Z,7.40
2018-03-28T10:44:57.398Z,7.03
2018-03-28T10:47:24.869Z,4.87
2018-03-28T10:49:52.326Z,6.80
2018-03-28T10:52:19.798Z,6.33
2018-03-28T10:54:48.007Z,6.03
2018-03-28T10:57:15.476Z,8.83
2018-03-28T10:59:42.939Z,6.47
2018-03-28T11:02:10.407Z,6.33
2018-03-28T11:04:39.636Z,6.40
2018-03-28T11:07:07.109Z,6.50
2018-03-28T11:09:39.604Z,7.07
2018-03-28T11:12:08.463Z,5.77
2018-03-28T11:14:35.923Z,8.53
2018-03-28T11:17:03.403Z,8.53
2018-03-28T11:19:30.858Z,7.03
2018-03-28T11:21:58.328Z,4.90
2018-03-28T11:24:25.783Z,5.80
2018-03-28T11:26:53.248Z,6.83
2018-03-28T11:29:20.696Z,6.67
2018-03-28T11:31:48.271Z,7.17
2018-03-28T11:34:15.720Z,6.20
2018-03-28T11:36:43.271Z,6.07
2018-03-28T11:39:11.490Z,6.97
2018-03-28T11:41:38.957Z,4.30
2018-03-28T11:44:06.452Z,4.63
2018-03-28T11:46:34.687Z,7.73
2018-03-28T11:49:02.161Z,6.97
2018-03-28T11:51:29.643Z,6.63
2018-03-28T11:53:57.863Z,5.80
2018-03-28T11:56:25.328Z,4.53
2018-03-28T11:58:52.830Z,6.23
2018-03-28T12:01:21.067Z,5.23
2018-03-28T12:03:48.519Z,5.13
2018-03-28T12:06:15.995Z,5.17
2018-03-28T12:08:43.556Z,9.13
2018-03-28T12:11:11.065Z,5.43
2018-03-28T12:13:39.279Z,5.67
2018-03-28T12:16:06.731Z,4.93
2018-03-28T12:18:34.194Z,4.87
2018-03-28T12:21:01.636Z,3.57
2018-03-28T12:23:29.104Z,4.60
2018-03-28T12:25:56.550Z,5.20
2018-03-28T12:28:26.816Z,5.43
2018-03-28T12:30:54.271Z,3.97
2018-03-28T12:33:21.731Z,4.13
2018-03-28T12:35:49.191Z,3.97
2018-03-28T12:38:16.656Z,5.30
2018-03-28T12:40:44.115Z,5.80
2018-03-28T12:43:11.580Z,5.50
2018-03-28T12:45:39.863Z,5.87
2018-03-28T12:48:08.095Z,6.37
2018-03-28T12:50:35.726Z,5.23
2018-03-28T12:53:03.164Z,6.90
2018-03-28T12:55:30.586Z,5.03
2018-03-28T12:57:58.052Z,3.70
2018-03-28T13:00:25.515Z,3.87
2018-03-28T13:02:53.001Z,4.70
2018-03-28T13:05:21.267Z,9.20
2018-03-28T13:07:48.699Z,7.57
2018-03-28T13:10:16.171Z,7.23
2018-03-28T13:12:43.632Z,3.53
2018-03-28T13:15:11.858Z,6.87
2018-03-28T13:17:39.327Z,4.97
2018-03-28T13:20:06.796Z,5.17
2018-03-28T13:22:34.268Z,4.60
2018-03-28T13:25:01.721Z,7.00
2018-03-28T13:27:29.191Z,3.57
2018-03-28T13:29:56.667Z,5.03
2018-03-28T13:32:24.913Z,8.33
2018-03-28T13:34:52.366Z,6.23
2018-03-28T13:37:19.842Z,6.63
2018-03-28T13:39:48.802Z,3.97
2018-03-28T13:42:16.265Z,6.40
2018-03-28T13:44:43.743Z,5.70
2018-03-28T13:47:11.211Z,6.03
2018-03-28T13:49:39.801Z,6.40
2018-03-28T13:52:07.272Z,7.83
2018-03-28T13:54:35.491Z,7.80
2018-03-28T13:57:02.967Z,9.87
2018-03-28T13:59:30.426Z,7.93
2018-03-28T14:01:57.905Z,9.53
2018-03-28T14:04:26.876Z,9.97
2018-03-28T14:06:54.348Z,12.20
2018-03-28T14:09:21.802Z,9.27
2018-03-28T14:11:49.271Z,9.80
2018-03-28T14:14:16.753Z,11.27
2018-03-28T14:16:44.978Z,13.27
2018-03-28T14:19:12.440Z,8.27
2018-03-28T14:21:39.961Z,12.17
2018-03-28T14:24:07.362Z,10.00
2018-03-28T14:26:34.848Z,11.07
2018-03-28T14:29:03.070Z,7.50
2018-03-28T14:31:30.564Z,12.10
2018-03-28T14:33:57.995Z,14.30
2018-03-28T14:36:25.456Z,12.83
2018-03-28T14:38:52.932Z,11.67
2018-03-28T14:41:20.400Z,11.03
2018-03-28T14:43:47.870Z,8.93
2018-03-28T14:46:16.102Z,7.87
2018-03-28T14:48:43.583Z,10.57
2018-03-28T14:51:11.051Z,8.87
2018-03-28T14:53:38.527Z,11.00
2018-03-28T14:56:05.974Z,7.70
2018-03-28T14:58:34.210Z,11.13
2018-03-28T15:01:01.667Z,8.13
2018-03-28T15:03:29.191Z,10.13
2018-03-28T15:05:57.415Z,11.70
2018-03-28T15:08:24.907Z,9.07
2018-03-28T15:10:52.437Z,11.13
2018-03-28T15:13:19.980Z,10.17
2018-03-28T15:15:48.176Z,12.37
2018-03-28T15:18:15.650Z,13.80
2018-03-28T15:20:43.110Z,12.23
2018-03-28T15:23:11.415Z,11.90
2018-03-28T15:25:39.645Z,14.47
2018-03-28T15:28:07.111Z,14.23
2018-03-28T15:32:59.351Z,14.03
2018-03-28T15:35:26.811Z,13.20
2018-03-28T15:37:54.285Z,13.63
2018-03-28T15:40:21.744Z,15.07
2018-03-28T15:42:49.210Z,13.43
2018-03-28T15:45:16.684Z,16.23
2018-03-28T15:47:44.203Z,12.23
2018-03-28T15:50:11.708Z,15.37
2018-03-28T15:52:39.950Z,16.43
2018-03-28T15:55:07.411Z,16.40
2018-03-28T15:57:34.889Z,13.20
2018-03-28T16:00:02.356Z,16.00
2018-03-28T16:02:30.587Z,14.47
2018-03-28T16:04:58.076Z,13.43
2018-03-28T16:07:25.535Z,14.37
2018-03-28T16:09:53.008Z,14.43
2018-03-28T16:12:21.254Z,12.73
2018-03-28T16:14:48.710Z,12.70
2018-03-28T16:17:16.172Z,10.23
2018-03-28T16:19:43.647Z,10.37
2018-03-28T16:22:11.998Z,9.93
2018-03-28T16:24:39.490Z,8.50
2018-03-28T16:27:06.943Z,9.13
2018-03-28T16:29:34.403Z,9.77
2018-03-28T16:32:01.892Z,9.23
2018-03-28T16:34:30.107Z,7.60
2018-03-28T16:36:57.614Z,7.03
2018-03-28T16:39:25.848Z,6.70
2018-03-28T16:41:53.311Z,5.80
2018-03-28T16:44:20.784Z,5.73
2018-03-28T16:46:48.640Z,6.90
2018-03-28T16:49:16.091Z,4.57
2018-03-28T16:51:43.555Z,4.70
2018-03-28T16:54:12.080Z,4.87
2018-03-28T16:56:39.534Z,4.30
2018-03-28T16:59:06.994Z,5.50
2018-03-28T17:01:34.488Z,4.70
2018-03-28T17:04:01.939Z,4.47
2018-03-28T17:06:29.407Z,4.07
2018-03-28T17:08:56.872Z,5.27
2018-03-28T17:11:24.344Z,3.97
2018-03-28T17:13:51.960Z,2.50
2018-03-28T17:16:19.419Z,3.80
2018-03-28T17:18:46.875Z,5.03
2018-03-28T17:21:15.379Z,3.70
2018-03-28T17:23:42.843Z,5.57
2018-03-28T17:26:10.314Z,4.33
2018-03-28T17:28:37.772Z,4.10
2018-03-28T17:31:05.244Z,3.73
2018-03-28T17:33:32.707Z,3.43
2018-03-28T17:36:00.188Z,5.30
2018-03-28T17:38:28.419Z,4.23
2018-03-28T17:40:55.944Z,4.33
2018-03-28T17:43:23.347Z,3.50
2018-03-28T17:45:50.891Z,3.80
2018-03-28T17:48:18.391Z,4.17
2018-03-28T17:50:46.639Z,3.40
2018-03-28T17:53:14.115Z,3.53
2018-03-28T17:55:41.628Z,3.40
2018-03-28T17:58:09.079Z,3.80
2018-03-28T18:00:36.598Z,3.37
2018-03-28T18:03:04.841Z,2.83
2018-03-28T18:05:32.312Z,3.50
2018-03-28T18:07:59.791Z,2.70
2018-03-28T18:10:28.051Z,11.07
2018-03-28T18:12:55.543Z,8.23
2018-03-28T18:15:23.759Z,4.37
2018-03-28T18:17:51.228Z,2.50
2018-03-28T18:20:18.691Z,2.43
2018-03-28T18:22:46.235Z,2.13
2018-03-28T18:25:13.697Z,3.87
2018-03-28T18:27:42.241Z,2.13
2018-03-28T18:30:10.464Z,2.20
2018-03-28T18:32:37.934Z,2.40
2018-03-28T18:35:05.491Z,2.50
2018-03-28T18:37:33.044Z,2.47
2018-03-28T18:40:00.504Z,2.90
2018-03-28T18:42:27.967Z,3.03
2018-03-28T18:44:56.491Z,2.67
2018-03-28T18:47:24.732Z,2.73
2018-03-28T18:49:52.209Z,2.93
2018-03-28T18:52:20.471Z,4.53
2018-03-28T18:54:47.937Z,2.60
2018-03-28T18:57:15.403Z,3.33
2018-03-28T18:59:43.638Z,8.57
2018-03-28T19:02:11.117Z,6.00
2018-03-28T19:04:38.579Z,2.67
2018-03-28T19:07:06.127Z,3.63
2018-03-28T19:09:33.601Z,2.60
2018-03-28T19:12:01.075Z,2.40
2018-03-28T19:14:29.368Z,2.67
2018-03-28T19:16:56.834Z,3.23
2018-03-28T19:19:25.102Z,2.37
2018-03-28T19:21:52.566Z,2.30
2018-03-28T19:24:20.040Z,2.30
2018-03-28T19:26:47.502Z,2.20
2018-03-28T19:29:15.018Z,1.70
2018-03-28T19:31:43.337Z,2.50
2018-03-28T19:34:10.805Z,2.10
2018-03-28T19:36:38.332Z,2.50
2018-03-28T19:39:06.604Z,2.17
2018-03-28T19:41:34.886Z,2.63
2018-03-28T19:44:03.212Z,1.90
2018-03-28T19:46:30.683Z,2.50
2018-03-28T19:48:58.148Z,8.37
2018-03-28T19:51:25.859Z,2.30
2018-03-28T19:53:53.346Z,3.13
2018-03-28T19:56:20.791Z,2.10
2018-03-28T19:58:48.263Z,3.70
2018-03-28T20:01:15.733Z,2.37
2018-03-28T20:03:43.235Z,2.87
2018-03-28T20:08:45.353Z,3.60
2018-03-28T20:11:12.807Z,2.30
2018-03-28T20:13:40.279Z,2.43
2018-03-28T20:16:07.783Z,2.87
2018-03-28T20:18:36.008Z,3.60
2018-03-28T20:21:03.471Z,4.33
2018-03-28T20:23:30.979Z,3.10
2018-03-28T20:25:59.232Z,2.57
2018-03-28T20:28:26.695Z,3.67
2018-03-28T20:30:54.167Z,2.63
2018-03-28T20:33:22.391Z,5.23
2018-03-28T20:35:49.909Z,2.87
2018-03-28T20:38:18.127Z,3.17
2018-03-28T20:40:45.656Z,2.17
2018-03-28T20:43:13.871Z,2.30
2018-03-28T20:45:41.335Z,2.50
2018-03-28T20:48:08.787Z,1.77
2018-03-28T20:50:36.259Z,2.77
2018-03-28T20:53:03.707Z,1.67
2018-03-28T20:55:31.204Z,1.77
2018-03-28T20:57:59.499Z,2.20
2018-03-28T21:00:27.730Z,1.70
2018-03-28T21:02:55.178Z,2.03
2018-03-28T21:05:22.642Z,1.70
2018-03-28T21:07:50.172Z,2.10
2018-03-28T21:10:18.390Z,1.97
2018-03-28T21:12:45.849Z,1.83
2018-03-28T21:15:14.122Z,2.20
2018-03-28T21:17:41.567Z,2.00
2018-03-28T21:20:09.091Z,2.10
2018-03-28T21:22:36.546Z,2.00
2018-03-28T21:25:04.771Z,2.43
2018-03-28T21:27:32.223Z,2.23
2018-03-28T21:29:59.711Z,1.60
2018-03-28T21:32:27.158Z,2.00
2018-03-28T21:34:54.622Z,1.70
2018-03-28T21:37:23.223Z,2.47
2018-03-28T21:39:51.465Z,2.23
2018-03-28T21:42:18.936Z,1.93
2018-03-28T21:44:46.402Z,2.20
2018-03-28T21:47:13.871Z,1.87
2018-03-28T21:49:42.099Z,2.20
2018-03-28T21:52:09.563Z,1.90
2018-03-28T21:54:37.064Z,2.20
2018-03-28T21:57:05.363Z,2.10
2018-03-28T21:59:32.807Z,2.20
2018-03-28T22:02:01.041Z,2.60
2018-03-28T22:04:28.544Z,2.60
2018-03-28T22:06:56.871Z,3.10
2018-03-28T22:09:24.339Z,5.10
2018-03-28T22:11:51.811Z,2.90
2018-03-28T22:14:19.270Z,2.90
2018-03-28T22:16:47.590Z,2.77
2018-03-28T22:19:15.788Z,5.77
2018-03-28T22:21:43.250Z,3.50
2018-03-28T22:24:10.714Z,3.30
2018-03-28T22:26:38.154Z,4.20
2018-03-28T22:29:05.627Z,3.53
2018-03-28T22:31:33.075Z,3.03
2018-03-28T22:34:00.556Z,3.60
2018-03-28T22:36:28.039Z,3.57
2018-03-28T22:38:55.508Z,4.20
2018-03-28T22:41:23.729Z,3.67
2018-03-28T22:43:51.194Z,3.93
2018-03-28T22:46:18.674Z,3.47
2018-03-28T22:48:46.106Z,4.07
2018-03-28T22:51:13.563Z,3.90
2018-03-28T22:53:41.031Z,3.70
2018-03-28T22:56:08.487Z,3.80
2018-03-28T22:58:36.052Z,3.70
2018-03-28T23:01:03.500Z,4.57
2018-03-28T23:03:30.969Z,6.00
2018-03-28T23:05:58.418Z,4.53
2018-03-28T23:08:25.889Z,4.50
2018-03-28T23:10:53.339Z,4.60
2018-03-28T23:13:20.787Z,4.40
2018-03-28T23:15:48.256Z,4.93
2018-03-28T23:18:15.726Z,6.13
2018-03-28T23:20:43.183Z,5.97
2018-03-28T23:23:10.646Z,5.50
2018-03-28T23:28:13.055Z,5.23
2018-03-28T23:30:40.519Z,5.07
2018-03-28T23:33:08.736Z,5.80
2018-03-28T23:35:36.195Z,5.40
2018-03-28T23:38:03.648Z,5.23
2018-03-28T23:40:31.111Z,5.87
2018-03-28T23:42:58.687Z,5.93
2018-03-28T23:45:26.146Z,7.20
2018-03-28T23:47:53.609Z,7.43
2018-03-28T23:50:21.059Z,8.23
2018-03-28T23:52:48.516Z,8.07
2018-03-28T23:55:15.974Z,7.17
2018-03-28T23:57:43.431Z,7.30
